createdAt,value
2019-03-18T00:00:12.423Z,4.63
2019-03-18T00:02:40.738Z,4.62
2019-03-18T00:05:09.082Z,4.60
2019-03-18T00:07:37.374Z,4.61
2019-03-18T00:10:07.419Z,4.62
2019-03-18T00:12:35.700Z,4.55
2019-03-18T00:15:05.951Z,4.58
2019-03-18T00:17:34.515Z,4.66
2019-03-18T00:20:02.924Z,4.67
2019-03-18T00:22:31.233Z,4.70
2019-03-18T00:24:59.537Z,4.68
2019-03-18T00:27:28.140Z,4.66
2019-03-18T00:29:56.462Z,4.62
2019-03-18T00:32:25.218Z,4.64
2019-03-18T00:34:53.784Z,4.62
2019-03-18T00:37:22.110Z,4.62
2019-03-18T00:39:50.644Z,4.58
2019-03-18T00:42:18.949Z,4.53
2019-03-18T00:44:47.230Z,4.53
2019-03-18T00:47:15.538Z,4.54
2019-03-18T00:49:43.836Z,4.49
2019-03-18T00:52:12.136Z,4.48
2019-03-18T00:54:40.429Z,4.48
2019-03-18T00:57:08.753Z,4.40
2019-03-18T00:59:37.103Z,4.38
2019-03-18T01:02:05.410Z,4.37
2019-03-18T01:04:34.011Z,4.40
2019-03-18T01:07:02.309Z,4.42
2019-03-18T01:09:30.612Z,4.42
2019-03-18T01:11:58.972Z,4.40
2019-03-18T01:14:27.357Z,4.41
2019-03-18T01:16:55.650Z,4.38
2019-03-18T01:19:24.287Z,4.35
2019-03-18T01:21:52.941Z,4.36
2019-03-18T01:24:21.564Z,4.37
2019-03-18T01:26:50.140Z,4.36
2019-03-18T01:29:18.434Z,4.36
2019-03-18T01:31:46.732Z,4.34
2019-03-18T01:34:15.373Z,4.34
2019-03-18T01:36:43.671Z,4.38
2019-03-18T01:39:11.970Z,4.40
2019-03-18T01:41:40.744Z,4.45
2019-03-18T01:44:09.127Z,4.52
2019-03-18T01:46:37.444Z,4.60
2019-03-18T01:49:05.813Z,4.63
2019-03-18T01:51:34.367Z,4.63
2019-03-18T01:54:02.651Z,4.62
2019-03-18T01:56:31.051Z,4.62
2019-03-18T01:58:59.351Z,4.56
2019-03-18T02:01:27.712Z,4.58
2019-03-18T02:03:56.010Z,4.60
2019-03-18T02:06:24.326Z,4.62
2019-03-18T02:08:52.631Z,4.67
2019-03-18T02:11:20.913Z,4.70
2019-03-18T02:13:49.216Z,4.73
2019-03-18T02:16:17.511Z,4.74
2019-03-18T02:18:45.809Z,4.76
2019-03-18T02:21:14.365Z,4.79
2019-03-18T02:23:42.678Z,4.81
2019-03-18T02:26:10.962Z,4.82
2019-03-18T02:28:39.354Z,4.84
2019-03-18T02:31:07.643Z,4.85
2019-03-18T02:33:36.370Z,4.83
2019-03-18T02:36:04.958Z,4.81
2019-03-18T02:38:33.254Z,4.80
2019-03-18T02:41:01.664Z,4.82
2019-03-18T02:43:30.404Z,4.86
2019-03-18T02:46:09.999Z,4.87
2019-03-18T02:48:28.736Z,4.85
2019-03-18T02:50:58.534Z,4.88
2019-03-18T02:53:26.810Z,4.82
2019-03-18T02:55:55.107Z,4.81
2019-03-18T02:58:23.650Z,4.80
2019-03-18T03:00:51.975Z,4.77
2019-03-18T03:03:20.265Z,4.78
2019-03-18T03:05:48.601Z,4.72
2019-03-18T03:08:16.891Z,4.65
2019-03-18T03:10:45.528Z,4.65
2019-03-18T03:13:13.825Z,4.57
2019-03-18T03:15:42.111Z,4.40
2019-03-18T03:18:10.696Z,4.35
2019-03-18T03:20:39.001Z,4.33
2019-03-18T03:23:07.317Z,4.30
2019-03-18T03:25:35.617Z,4.28
2019-03-18T03:28:03.938Z,4.27
2019-03-18T03:30:32.241Z,4.31
2019-03-18T03:33:00.551Z,4.34
2019-03-18T03:35:28.958Z,4.31
2019-03-18T03:37:57.220Z,4.36
2019-03-18T03:40:25.514Z,4.39
2019-03-18T03:42:54.181Z,4.40
2019-03-18T03:45:22.463Z,4.40
2019-03-18T03:47:50.795Z,4.45
2019-03-18T03:50:19.111Z,4.50
2019-03-18T03:52:47.777Z,4.51
2019-03-18T03:55:16.074Z,4.52
2019-03-18T03:57:45.065Z,4.55
2019-03-18T04:00:16.716Z,4.57
2019-03-18T04:02:45.178Z,4.57
2019-03-18T04:05:13.457Z,4.60
2019-03-18T04:07:41.914Z,4.61
2019-03-18T04:10:12.858Z,4.61
2019-03-18T04:12:41.466Z,4.59
2019-03-18T04:15:11.396Z,4.51
2019-03-18T04:17:39.729Z,4.48
2019-03-18T04:20:13.726Z,4.49
2019-03-18T04:22:42.048Z,4.49
2019-03-18T04:25:10.415Z,4.50
2019-03-18T04:27:38.731Z,4.53
2019-03-18T04:30:12.158Z,4.55
2019-03-18T04:32:40.426Z,4.61
2019-03-18T04:35:08.926Z,4.67
2019-03-18T04:37:37.241Z,4.68
2019-03-18T04:40:07.782Z,4.64
2019-03-18T04:42:36.095Z,4.64
2019-03-18T04:45:06.239Z,4.60
2019-03-18T04:47:34.651Z,4.64
2019-03-18T04:50:03.237Z,4.66
2019-03-18T04:52:31.555Z,4.70
2019-03-18T04:54:59.951Z,4.73
2019-03-18T04:57:28.242Z,4.78
2019-03-18T04:59:56.561Z,4.82
2019-03-18T05:02:24.912Z,4.84
2019-03-18T05:04:53.251Z,4.76
2019-03-18T05:07:21.546Z,4.73
2019-03-18T05:09:50.135Z,4.71
2019-03-18T05:12:18.425Z,4.72
2019-03-18T05:14:46.760Z,4.68
2019-03-18T05:17:26.093Z,4.67
2019-03-18T05:19:45.072Z,4.68
2019-03-18T05:22:13.764Z,4.72
2019-03-18T05:24:42.074Z,4.76
2019-03-18T05:27:10.385Z,4.79
2019-03-18T05:29:38.678Z,4.76
2019-03-18T05:32:06.991Z,4.71
2019-03-18T05:34:35.286Z,4.73
2019-03-18T05:37:03.680Z,4.80
2019-03-18T05:39:32.220Z,4.85
2019-03-18T05:42:00.646Z,4.87
2019-03-18T05:44:28.966Z,4.93
2019-03-18T05:46:57.282Z,4.98
2019-03-18T05:49:25.572Z,4.96
2019-03-18T05:51:53.878Z,4.95
2019-03-18T05:54:22.478Z,4.91
2019-03-18T05:56:50.800Z,4.93
2019-03-18T05:59:19.437Z,5.01
2019-03-18T06:01:47.737Z,5.08
2019-03-18T06:04:16.491Z,5.19
2019-03-18T06:06:44.785Z,5.11
2019-03-18T06:09:13.097Z,5.02
2019-03-18T06:11:41.373Z,4.93
2019-03-18T06:14:09.696Z,4.92
2019-03-18T06:16:37.987Z,4.96
2019-03-18T06:19:06.293Z,4.97
2019-03-18T06:21:34.585Z,5.01
2019-03-18T06:24:02.910Z,5.01
2019-03-18T06:26:31.513Z,4.99
2019-03-18T06:28:59.855Z,4.87
2019-03-18T06:31:28.138Z,4.78
2019-03-18T06:33:56.473Z,4.80
2019-03-18T06:36:24.772Z,4.90
2019-03-18T06:38:53.086Z,5.01
2019-03-18T06:41:21.457Z,5.14
2019-03-18T06:43:49.746Z,5.24
2019-03-18T06:46:18.068Z,5.37
2019-03-18T06:48:46.395Z,5.47
2019-03-18T06:51:14.726Z,5.59
2019-03-18T06:53:43.270Z,5.61
2019-03-18T06:56:11.579Z,5.64
2019-03-18T06:58:39.869Z,5.64
2019-03-18T07:01:08.202Z,5.65
2019-03-18T07:03:36.774Z,5.59
2019-03-18T07:06:05.081Z,5.59
2019-03-18T07:08:33.389Z,5.67
2019-03-18T07:11:01.706Z,5.77
2019-03-18T07:13:30.010Z,5.70
2019-03-18T07:16:00.104Z,5.70
2019-03-18T07:18:28.563Z,5.77
2019-03-18T07:20:58.563Z,5.81
2019-03-18T07:23:26.857Z,5.84
2019-03-18T07:25:55.162Z,5.92
2019-03-18T07:28:23.480Z,5.99
2019-03-18T07:30:51.772Z,6.04
2019-03-18T07:33:20.391Z,6.15
2019-03-18T07:35:48.687Z,6.27
2019-03-18T07:38:17.023Z,6.46
2019-03-18T07:40:45.306Z,6.54
2019-03-18T07:43:14.828Z,6.50
2019-03-18T07:45:43.131Z,6.26
2019-03-18T07:48:12.669Z,6.33
2019-03-18T07:50:41.039Z,6.46
2019-03-18T07:53:09.349Z,6.60
2019-03-18T07:55:37.659Z,6.55
2019-03-18T07:58:05.970Z,6.43
2019-03-18T08:00:34.277Z,6.58
2019-03-18T08:03:03.585Z,6.74
2019-03-18T08:05:31.970Z,6.83
2019-03-18T08:08:00.290Z,6.87
2019-03-18T08:10:28.623Z,6.87
2019-03-18T08:12:56.926Z,6.96
2019-03-18T08:15:25.233Z,6.90
2019-03-18T08:17:53.596Z,6.93
2019-03-18T08:20:21.907Z,6.79
2019-03-18T08:22:50.235Z,6.67
2019-03-18T08:25:18.520Z,6.89
2019-03-18T08:27:47.118Z,7.11
2019-03-18T08:30:17.119Z,7.26
2019-03-18T08:32:45.777Z,7.20
2019-03-18T08:35:14.090Z,7.07
2019-03-18T08:37:42.412Z,6.98
2019-03-18T08:40:13.494Z,7.13
2019-03-18T08:42:41.794Z,7.13
2019-03-18T08:45:11.870Z,7.08
2019-03-18T08:47:40.169Z,7.13
2019-03-18T08:50:12.281Z,7.27
2019-03-18T08:52:40.293Z,7.53
2019-03-18T08:55:09.972Z,7.76
2019-03-18T08:57:38.280Z,7.94
2019-03-18T09:00:12.385Z,7.99
2019-03-18T09:02:40.689Z,7.84
2019-03-18T09:05:09.651Z,7.90
2019-03-18T09:07:38.093Z,7.91
2019-03-18T09:10:09.918Z,8.02
2019-03-18T09:12:38.196Z,8.18
2019-03-18T09:15:08.553Z,8.27
2019-03-18T09:17:36.854Z,8.37
2019-03-18T09:20:08.624Z,8.46
2019-03-18T09:22:36.927Z,8.31
2019-03-18T09:25:07.176Z,8.19
2019-03-18T09:27:35.808Z,8.24
2019-03-18T09:30:06.748Z,8.38
2019-03-18T09:32:35.348Z,8.56
2019-03-18T09:35:04.462Z,8.79
2019-03-18T09:37:33.113Z,8.70
2019-03-18T09:40:01.421Z,8.93
2019-03-18T09:42:29.704Z,9.17
2019-03-18T09:44:58.035Z,9.08
2019-03-18T09:47:26.348Z,8.91
2019-03-18T09:49:54.695Z,8.87
2019-03-18T09:52:23.060Z,9.03
2019-03-18T09:54:51.661Z,9.17
2019-03-18T09:57:25.787Z,9.45
2019-03-18T09:59:50.061Z,9.32
2019-03-18T10:02:18.454Z,9.52
2019-03-18T10:04:46.753Z,9.78
2019-03-18T10:07:15.072Z,9.94
2019-03-18T10:09:43.447Z,9.78
2019-03-18T10:12:11.840Z,9.73
2019-03-18T10:14:40.138Z,9.74
2019-03-18T10:17:10.003Z,9.61
2019-03-18T10:19:38.559Z,9.48
2019-03-18T10:22:06.895Z,9.32
2019-03-18T10:24:35.242Z,9.29
2019-03-18T10:27:03.835Z,9.49
2019-03-18T10:29:32.231Z,9.58
2019-03-18T10:32:00.527Z,9.34
2019-03-18T10:34:28.844Z,9.31
2019-03-18T10:36:57.125Z,9.48
2019-03-18T10:39:25.762Z,9.54
2019-03-18T10:41:54.062Z,9.68
2019-03-18T10:44:22.453Z,9.58
2019-03-18T10:46:50.852Z,9.70
2019-03-18T10:49:19.149Z,9.93
2019-03-18T10:51:48.397Z,10.05
2019-03-18T10:54:16.818Z,10.13
2019-03-18T10:56:45.157Z,10.10
2019-03-18T10:59:13.466Z,10.04
2019-03-18T11:01:41.791Z,9.93
2019-03-18T11:04:10.078Z,9.83
2019-03-18T11:06:38.397Z,9.70
2019-03-18T11:09:06.948Z,9.11
2019-03-18T11:11:35.282Z,8.98
2019-03-18T11:14:03.575Z,8.89
2019-03-18T11:16:32.268Z,8.84
2019-03-18T11:19:00.863Z,8.92
2019-03-18T11:21:29.268Z,9.07
2019-03-18T11:23:57.902Z,9.32
2019-03-18T11:26:26.217Z,9.43
2019-03-18T11:28:54.583Z,9.45
2019-03-18T11:31:22.912Z,9.62
2019-03-18T11:33:51.198Z,9.82
2019-03-18T11:36:19.641Z,10.11
2019-03-18T11:38:47.954Z,10.14
2019-03-18T11:41:17.531Z,10.41
2019-03-18T11:43:46.283Z,10.53
2019-03-18T11:46:14.585Z,10.69
2019-03-18T11:48:42.889Z,10.88
2019-03-18T11:51:11.202Z,10.82
2019-03-18T11:53:39.769Z,10.75
2019-03-18T11:56:08.076Z,10.72
2019-03-18T11:58:36.381Z,10.63
2019-03-18T12:01:05.035Z,10.46
2019-03-18T12:03:33.343Z,10.33
2019-03-18T12:06:01.710Z,10.12
2019-03-18T12:08:30.035Z,10.01
2019-03-18T12:11:01.115Z,9.96
2019-03-18T12:13:29.418Z,10.04
2019-03-18T12:15:57.723Z,9.98
2019-03-18T12:18:26.289Z,9.85
2019-03-18T12:20:54.595Z,9.55
2019-03-18T12:23:22.909Z,9.41
2019-03-18T12:25:51.225Z,9.33
2019-03-18T12:28:19.540Z,9.14
2019-03-18T12:30:48.125Z,9.09
2019-03-18T12:33:16.464Z,9.03
2019-03-18T12:35:44.742Z,9.10
2019-03-18T12:38:13.055Z,9.15
2019-03-18T12:40:41.340Z,9.23
2019-03-18T12:43:09.655Z,9.34
2019-03-18T12:45:37.952Z,9.39
2019-03-18T12:48:06.258Z,9.44
2019-03-18T12:50:54.450Z,9.52
2019-03-18T12:53:05.050Z,9.62
2019-03-18T12:55:33.348Z,9.79
2019-03-18T12:58:01.633Z,9.99
2019-03-18T13:00:35.003Z,10.26
2019-03-18T13:03:03.369Z,10.56
2019-03-18T13:05:32.085Z,11.00
2019-03-18T13:08:00.396Z,11.07
2019-03-18T13:10:29.054Z,10.98
2019-03-18T13:12:57.457Z,10.78
2019-03-18T13:15:25.859Z,10.54
2019-03-18T13:17:54.168Z,10.48
2019-03-18T13:20:23.437Z,10.50
2019-03-18T13:22:54.002Z,10.49
2019-03-18T13:25:21.753Z,10.31
2019-03-18T13:27:50.073Z,10.18
2019-03-18T13:30:25.358Z,10.15
2019-03-18T13:32:53.928Z,10.27
2019-03-18T13:35:22.563Z,10.25
2019-03-18T13:37:50.878Z,10.27
2019-03-18T13:40:19.955Z,10.29
2019-03-18T13:42:48.470Z,10.09
2019-03-18T13:45:23.874Z,9.75
2019-03-18T13:47:52.177Z,9.57
2019-03-18T13:50:21.342Z,9.45
2019-03-18T13:52:49.907Z,9.36
2019-03-18T13:55:18.450Z,9.38
2019-03-18T13:57:47.096Z,9.49
2019-03-18T14:00:16.818Z,9.61
2019-03-18T14:02:45.119Z,9.72
2019-03-18T14:05:13.905Z,9.66
2019-03-18T14:07:42.531Z,9.53
2019-03-18T14:10:18.394Z,9.57
2019-03-18T14:12:46.958Z,9.54
2019-03-18T14:15:16.681Z,9.55
2019-03-18T14:17:44.988Z,9.60
2019-03-18T14:20:18.466Z,9.66
2019-03-18T14:22:46.999Z,9.72
2019-03-18T14:25:15.379Z,9.77
2019-03-18T14:27:44.002Z,9.94
2019-03-18T14:30:16.713Z,10.16
2019-03-18T14:32:45.277Z,10.20
2019-03-18T14:35:14.227Z,10.22
2019-03-18T14:37:42.816Z,10.22
2019-03-18T14:40:13.108Z,10.20
2019-03-18T14:42:41.395Z,10.21
2019-03-18T14:45:12.765Z,10.22
2019-03-18T14:47:41.076Z,10.23
2019-03-18T14:50:11.335Z,10.28
2019-03-18T14:52:39.645Z,9.98
2019-03-18T14:55:10.614Z,9.71
2019-03-18T14:57:38.892Z,9.47
2019-03-18T15:00:24.932Z,9.37
2019-03-18T15:02:59.491Z,9.05
2019-03-18T15:05:27.816Z,8.66
2019-03-18T15:07:56.188Z,8.38
2019-03-18T15:10:28.109Z,8.24
2019-03-18T15:12:56.398Z,8.02
2019-03-18T15:15:24.694Z,7.78
2019-03-18T15:17:52.988Z,7.74
2019-03-18T15:20:23.479Z,7.77
2019-03-18T15:22:51.818Z,7.84
2019-03-18T15:25:28.758Z,7.91
2019-03-18T15:27:57.421Z,7.98
2019-03-18T15:30:25.704Z,8.07
2019-03-18T15:32:54.018Z,8.16
2019-03-18T15:35:22.389Z,8.26
2019-03-18T15:37:50.702Z,8.36
2019-03-18T15:40:20.435Z,8.43
2019-03-18T15:42:49.126Z,8.40
2019-03-18T15:45:18.355Z,8.33
2019-03-18T15:47:46.687Z,8.34
2019-03-18T15:50:20.005Z,8.40
2019-03-18T15:52:48.521Z,8.36
2019-03-18T15:55:16.857Z,8.31
2019-03-18T15:57:45.443Z,8.25
2019-03-18T16:00:28.995Z,8.25
2019-03-18T16:02:57.291Z,8.20
2019-03-18T16:05:25.848Z,8.22
2019-03-18T16:07:54.399Z,8.25
2019-03-18T16:10:22.713Z,8.32
2019-03-18T16:12:51.012Z,8.38
2019-03-18T16:15:19.468Z,8.41
2019-03-18T16:17:47.835Z,8.55
2019-03-18T16:20:23.586Z,8.64
2019-03-18T16:22:51.988Z,8.82
2019-03-18T16:25:20.376Z,8.91
2019-03-18T16:27:48.667Z,8.88
2019-03-18T16:30:20.700Z,8.94
2019-03-18T16:32:48.984Z,9.08
2019-03-18T16:35:17.724Z,9.12
2019-03-18T16:37:46.502Z,8.94
2019-03-18T16:40:17.365Z,8.88
2019-03-18T16:42:45.672Z,8.87
2019-03-18T16:45:17.776Z,8.82
2019-03-18T16:47:46.080Z,8.75
2019-03-18T16:50:27.933Z,8.61
2019-03-18T16:52:56.219Z,8.49
2019-03-18T16:55:24.530Z,8.41
2019-03-18T16:57:52.830Z,8.36
2019-03-18T17:00:27.964Z,8.27
2019-03-18T17:02:56.290Z,8.20
2019-03-18T17:05:24.575Z,8.15
2019-03-18T17:07:54.425Z,8.09
2019-03-18T17:10:22.977Z,8.03
2019-03-18T17:12:51.576Z,7.93
2019-03-18T17:15:20.904Z,7.88
2019-03-18T17:17:49.213Z,7.83
2019-03-18T17:20:17.789Z,7.72
2019-03-18T17:22:50.366Z,7.66
2019-03-18T17:25:21.493Z,7.58
2019-03-18T17:27:50.164Z,7.53
2019-03-18T17:30:19.516Z,7.53
2019-03-18T17:32:48.087Z,7.50
2019-03-18T17:35:16.456Z,7.46
2019-03-18T17:37:44.821Z,7.42
2019-03-18T17:40:18.421Z,7.33
2019-03-18T17:42:46.719Z,7.27
2019-03-18T17:45:18.885Z,7.20
2019-03-18T17:47:47.198Z,7.16
2019-03-18T17:50:23.912Z,7.17
2019-03-18T17:53:02.464Z,7.20
2019-03-18T17:55:22.256Z,7.24
2019-03-18T17:57:50.542Z,7.24
2019-03-18T18:00:20.998Z,7.24
2019-03-18T18:02:49.298Z,7.27
2019-03-18T18:05:17.608Z,7.25
2019-03-18T18:07:46.169Z,7.22
2019-03-18T18:10:14.816Z,7.25
2019-03-18T18:12:43.104Z,7.24
2019-03-18T18:15:11.987Z,7.22
2019-03-18T18:17:40.554Z,7.22
2019-03-18T18:20:10.789Z,7.21
2019-03-18T18:22:41.023Z,7.22
2019-03-18T18:25:13.344Z,7.25
2019-03-18T18:27:41.962Z,7.27
2019-03-18T18:30:12.340Z,7.23
2019-03-18T18:32:40.640Z,7.20
2019-03-18T18:35:12.800Z,7.17
2019-03-18T18:37:41.262Z,7.14
2019-03-18T18:40:18.688Z,7.10
2019-03-18T18:42:46.988Z,7.04
2019-03-18T18:45:15.273Z,6.98
2019-03-18T18:47:43.558Z,6.92
2019-03-18T18:50:12.611Z,6.85
2019-03-18T18:52:40.930Z,6.76
2019-03-18T18:55:11.468Z,6.67
2019-03-18T18:57:39.748Z,6.62
2019-03-18T19:00:17.153Z,6.58
2019-03-18T19:02:45.445Z,6.55
2019-03-18T19:05:15.013Z,6.51
2019-03-18T19:07:43.883Z,6.50
2019-03-18T19:10:16.385Z,6.45
2019-03-18T19:12:44.679Z,6.42
2019-03-18T19:15:38.760Z,6.36
2019-03-18T19:18:07.396Z,6.32
2019-03-18T19:20:35.716Z,6.26
2019-03-18T19:23:04.048Z,6.22
2019-03-18T19:25:32.660Z,6.18
2019-03-18T19:28:01.080Z,6.09
2019-03-18T19:30:29.727Z,6.02
2019-03-18T19:32:58.052Z,5.98
2019-03-18T19:35:28.626Z,5.93
2019-03-18T19:37:56.385Z,5.90
2019-03-18T19:40:25.234Z,5.88
2019-03-18T19:42:53.544Z,5.89
2019-03-18T19:45:21.948Z,5.89
2019-03-18T19:47:53.035Z,5.90
2019-03-18T19:50:21.448Z,5.91
2019-03-18T19:52:49.799Z,5.89
2019-03-18T19:55:18.138Z,5.85
2019-03-18T19:57:46.428Z,5.82
2019-03-18T20:00:30.786Z,5.80
2019-03-18T20:02:59.094Z,5.79
2019-03-18T20:05:27.407Z,5.78
2019-03-18T20:07:55.709Z,5.75
2019-03-18T20:10:24.045Z,5.70
2019-03-18T20:12:52.341Z,5.66
2019-03-18T20:15:20.847Z,5.60
2019-03-18T20:17:49.297Z,5.55
2019-03-18T20:20:24.312Z,5.50
2019-03-18T20:22:52.633Z,5.43
2019-03-18T20:25:20.933Z,5.38
2019-03-18T20:27:49.572Z,5.35
2019-03-18T20:30:19.897Z,5.34
2019-03-18T20:32:48.293Z,5.28
2019-03-18T20:35:26.374Z,5.24
2019-03-18T20:37:54.698Z,5.20
2019-03-18T20:40:23.067Z,5.17
2019-03-18T20:42:51.472Z,5.15
2019-03-18T20:45:24.719Z,5.15
2019-03-18T20:47:53.062Z,5.17
2019-03-18T20:50:22.599Z,5.20
2019-03-18T20:52:50.910Z,5.21
2019-03-18T20:55:19.448Z,5.22
2019-03-18T20:57:47.797Z,5.19
2019-03-18T21:00:17.870Z,5.14
2019-03-18T21:02:46.219Z,5.09
2019-03-18T21:05:14.683Z,5.03
2019-03-18T21:07:43.000Z,4.94
2019-03-18T21:10:13.241Z,4.86
2019-03-18T21:12:41.672Z,4.79
2019-03-18T21:15:12.004Z,4.76
2019-03-18T21:17:40.301Z,4.73
2019-03-18T21:20:17.737Z,4.70
2019-03-18T21:22:46.104Z,4.66
2019-03-18T21:25:14.547Z,4.62
2019-03-18T21:27:42.841Z,4.52
2019-03-18T21:30:17.209Z,4.46
2019-03-18T21:32:45.488Z,4.42
2019-03-18T21:35:13.872Z,4.34
2019-03-18T21:37:42.441Z,4.30
2019-03-18T21:40:18.721Z,4.24
2019-03-18T21:42:47.131Z,4.22
2019-03-18T21:45:19.581Z,4.20
2019-03-18T21:47:48.246Z,4.16
2019-03-18T21:50:17.055Z,4.13
2019-03-18T21:52:45.735Z,4.06
2019-03-18T21:55:14.855Z,3.99
2019-03-18T21:57:43.313Z,3.95
2019-03-18T22:00:24.127Z,3.89
2019-03-18T22:02:52.515Z,3.86
2019-03-18T22:05:20.810Z,3.84
2019-03-18T22:07:49.122Z,3.83
2019-03-18T22:10:23.252Z,3.80
2019-03-18T22:12:51.893Z,3.76
2019-03-18T22:15:20.265Z,3.70
2019-03-18T22:17:48.569Z,3.68
2019-03-18T22:20:17.832Z,3.63
2019-03-18T22:22:46.198Z,3.59
2019-03-18T22:25:15.363Z,3.58
2019-03-18T22:27:43.639Z,3.55
2019-03-18T22:30:15.114Z,3.52
2019-03-18T22:32:43.690Z,3.50
2019-03-18T22:35:12.795Z,3.43
2019-03-18T22:37:41.115Z,3.39
2019-03-18T22:40:12.529Z,3.38
2019-03-18T22:42:40.824Z,3.37
2019-03-18T22:45:11.835Z,3.34
2019-03-18T22:47:40.322Z,3.36
2019-03-18T22:50:12.660Z,3.30
2019-03-18T22:52:41.215Z,3.27
2019-03-18T22:55:11.381Z,3.23
2019-03-18T22:57:39.729Z,3.22
2019-03-18T23:00:25.932Z,3.20
2019-03-18T23:02:54.321Z,3.21
2019-03-18T23:05:22.612Z,3.18
2019-03-18T23:07:50.924Z,3.19
2019-03-18T23:10:19.227Z,3.15
2019-03-18T23:12:47.643Z,3.12
2019-03-18T23:15:15.998Z,3.07
2019-03-18T23:17:44.317Z,3.03
2019-03-18T23:20:13.036Z,2.99
2019-03-18T23:22:41.340Z,2.98
2019-03-18T23:25:09.820Z,2.95
2019-03-18T23:27:38.155Z,2.93
2019-03-18T23:30:13.933Z,2.96
2019-03-18T23:32:42.687Z,2.96
2019-03-18T23:35:11.760Z,2.95
2019-03-18T23:37:40.076Z,2.91
2019-03-18T23:40:11.002Z,2.86
2019-03-18T23:42:39.313Z,2.82
2019-03-18T23:45:08.778Z,2.81
2019-03-18T23:47:37.381Z,2.82
2019-03-18T23:50:08.546Z,2.80
2019-03-18T23:52:36.862Z,2.78
2019-03-18T23:55:18.286Z,2.75
2019-03-18T23:57:37.915Z,2.71
